首页
METAR-TAF:

METAR-TAF

机场 :

鲁珀特王子港, 不列颠哥伦比亚, 加拿大

纬度: 54-18N, 经度: 130-26W, 海拔: 34米

当前天气观测

该预报发布于16分钟前的14:55 UTC
风速3节,风向西,在西南西北之间变化
温度 13°C
湿度 82%
气压 1015 hPa
能見度: 14.5公里
少量云层高于1400英尺
散云层高于2100英尺
多云层高于3600英尺

METAR: CYPR 121455Z AUTO 27003KT 230V310 9SM FEW014 SCT021 BKN036 13/10 A2997 RMK SLP152

时间: 08:11 (15:11 UTC)

预报

该预报发布于2小时和33分钟前的12:38 UTC
预报有效从12日的 13点(UTC)到 13日的 01点(UTC)
风速6节,风向西
能見度: 10公里
散云层高于1500英尺
多云层高于4000英尺
短暂存在
从 12日的 13点(UTC)到 13日的 01点(UTC)
散云层高于800英尺
多云层高于1500英尺
成为
从 12日的 17点(UTC)到 12日的 19点(UTC)
风速8节,风向西转西南

TAF: CYPR 121238Z 1213/1301 28006KT P6SM SCT015 BKN040 TEMPO 1213/1301 SCT008 BKN015 BECMG 1217/1219 24008KT RMK FCST BASED ON AUTO OBS. NXT FCST BY 121900Z

超过4000个机场的气象观测和天气预报(METAR&TAF报告)。

可查询的气象台以黄色和红色小点在地图上表示。

将鼠标移到小点上方,可查看气象台名称。

然后点击查看天气观测和预报。

如需切换地图:点击带黑十字的绿色按钮放大地图;点击带横线的绿色按钮缩小地图;或者点击绿色箭头查看邻近地区的地图。


METAR-TAF: